sensor_id;sensor_type;location;lat;lon;timestamp;P1;durP1;ratioP1;P2;durP2;ratioP2
31083;SDS011;36333;51.382;0.016;2022-12-10T00:01:25;54.20;;;17.80;;
31083;SDS011;36333;51.382;0.016;2022-12-10T00:03:58;51.15;;;17.05;;
31083;SDS011;36333;51.382;0.016;2022-12-10T00:06:58;49.97;;;17.33;;
31083;SDS011;36333;51.382;0.016;2022-12-10T00:10:07;56.75;;;17.85;;
31083;SDS011;36333;51.382;0.016;2022-12-10T00:12:37;45.05;;;16.73;;
31083;SDS011;36333;51.382;0.016;2022-12-10T00:15:11;50.97;;;16.90;;
31083;SDS011;36333;51.382;0.016;2022-12-10T00:17:57;44.25;;;16.08;;
31083;SDS011;36333;51.382;0.016;2022-12-10T00:20:27;49.33;;;16.40;;
31083;SDS011;36333;51.382;0.016;2022-12-10T00:23:07;48.35;;;17.30;;
31083;SDS011;36333;51.382;0.016;2022-12-10T00:25:40;46.40;;;16.92;;
31083;SDS011;36333;51.382;0.016;2022-12-10T00:28:10;51.00;;;17.10;;
31083;SDS011;36333;51.382;0.016;2022-12-10T00:30:42;44.70;;;16.48;;
31083;SDS011;36333;51.382;0.016;2022-12-10T00:33:12;46.55;;;16.45;;
31083;SDS011;36333;51.382;0.016;2022-12-10T00:35:42;55.08;;;16.35;;
31083;SDS011;36333;51.382;0.016;2022-12-10T00:38:33;49.97;;;15.80;;
31083;SDS011;36333;51.382;0.016;2022-12-10T00:41:15;51.88;;;15.90;;
31083;SDS011;36333;51.382;0.016;2022-12-10T00:43:52;43.58;;;15.45;;
31083;SDS011;36333;51.382;0.016;2022-12-10T00:46:31;48.67;;;17.25;;
31083;SDS011;36333;51.382;0.016;2022-12-10T00:49:02;41.15;;;16.17;;
31083;SDS011;36333;51.382;0.016;2022-12-10T00:51:46;39.42;;;15.25;;
31083;SDS011;36333;51.382;0.016;2022-12-10T00:54:16;47.65;;;16.20;;
31083;SDS011;36333;51.382;0.016;2022-12-10T00:56:59;43.35;;;15.00;;
31083;SDS011;36333;51.382;0.016;2022-12-10T00:59:52;36.63;;;14.20;;
31083;SDS011;36333;51.382;0.016;2022-12-10T01:02:34;37.20;;;15.00;;
31083;SDS011;36333;51.382;0.016;2022-12-10T01:05:06;47.15;;;15.27;;
31083;SDS011;36333;51.382;0.016;2022-12-10T01:07:34;39.85;;;14.60;;
31083;SDS011;36333;51.382;0.016;2022-12-10T01:10:04;37.08;;;14.38;;
31083;SDS011;36333;51.382;0.016;2022-12-10T01:12:39;46.15;;;14.70;;
31083;SDS011;36333;51.382;0.016;2022-12-10T01:19:24;39.40;;;14.70;;
31083;SDS011;36333;51.382;0.016;2022-12-10T01:22:27;44.70;;;14.68;;
31083;SDS011;36333;51.382;0.016;2022-12-10T01:25:07;41.63;;;14.30;;
31083;SDS011;36333;51.382;0.016;2022-12-10T01:27:44;38.90;;;14.00;;
31083;SDS011;36333;51.382;0.016;2022-12-10T01:30:18;45.40;;;14.00;;
31083;SDS011;36333;51.382;0.016;2022-12-10T01:33:18;42.33;;;14.18;;
31083;SDS011;36333;51.382;0.016;2022-12-10T01:36:22;42.22;;;14.65;;
31083;SDS011;36333;51.382;0.016;2022-12-10T01:39:39;41.47;;;14.88;;
31083;SDS011;36333;51.382;0.016;2022-12-10T01:46:55;39.00;;;12.93;;
31083;SDS011;36333;51.382;0.016;2022-12-10T01:49:56;42.40;;;13.35;;
31083;SDS011;36333;51.382;0.016;2022-12-10T01:53:00;38.25;;;12.82;;
31083;SDS011;36333;51.382;0.016;2022-12-10T01:55:40;45.17;;;13.77;;
31083;SDS011;36333;51.382;0.016;2022-12-10T01:58:33;40.75;;;13.10;;
31083;SDS011;36333;51.382;0.016;2022-12-10T02:08:33;41.97;;;13.85;;
31083;SDS011;36333;51.382;0.016;2022-12-10T02:11:20;41.25;;;13.52;;
31083;SDS011;36333;51.382;0.016;2022-12-10T02:14:08;30.58;;;12.07;;
31083;SDS011;36333;51.382;0.016;2022-12-10T02:17:19;37.90;;;12.70;;
31083;SDS011;36333;51.382;0.016;2022-12-10T02:26:30;43.13;;;12.05;;
31083;SDS011;36333;51.382;0.016;2022-12-10T02:35:51;32.20;;;11.88;;
31083;SDS011;36333;51.382;0.016;2022-12-10T02:39:38;34.95;;;12.23;;
31083;SDS011;36333;51.382;0.016;2022-12-10T02:42:23;41.97;;;13.75;;
31083;SDS011;36333;51.382;0.016;2022-12-10T02:44:59;40.95;;;13.40;;
31083;SDS011;36333;51.382;0.016;2022-12-10T02:47:58;43.20;;;13.30;;
31083;SDS011;36333;51.382;0.016;2022-12-10T02:51:00;40.78;;;13.32;;
31083;SDS011;36333;51.382;0.016;2022-12-10T02:53:42;39.33;;;12.57;;
31083;SDS011;36333;51.382;0.016;2022-12-10T02:56:48;33.42;;;11.85;;
31083;SDS011;36333;51.382;0.016;2022-12-10T02:59:39;29.40;;;11.68;;
31083;SDS011;36333;51.382;0.016;2022-12-10T03:05:42;38.00;;;12.18;;
31083;SDS011;36333;51.382;0.016;2022-12-10T03:12:10;33.42;;;12.35;;
31083;SDS011;36333;51.382;0.016;2022-12-10T03:14:57;37.00;;;13.25;;
31083;SDS011;36333;51.382;0.016;2022-12-10T03:17:53;34.08;;;12.98;;
31083;SDS011;36333;51.382;0.016;2022-12-10T03:20:27;41.92;;;13.35;;
31083;SDS011;36333;51.382;0.016;2022-12-10T03:23:26;32.67;;;12.77;;
31083;SDS011;36333;51.382;0.016;2022-12-10T03:25:59;33.15;;;12.38;;
31083;SDS011;36333;51.382;0.016;2022-12-10T03:28:34;37.53;;;12.45;;
31083;SDS011;36333;51.382;0.016;2022-12-10T03:31:26;32.53;;;12.60;;
31083;SDS011;36333;51.382;0.016;2022-12-10T03:33:58;45.60;;;13.75;;
31083;SDS011;36333;51.382;0.016;2022-12-10T03:36:34;35.72;;;12.98;;
31083;SDS011;36333;51.382;0.016;2022-12-10T03:39:04;42.95;;;13.65;;
31083;SDS011;36333;51.382;0.016;2022-12-10T03:41:33;37.00;;;13.15;;
31083;SDS011;36333;51.382;0.016;2022-12-10T03:44:02;37.65;;;12.82;;
31083;SDS011;36333;51.382;0.016;2022-12-10T03:46:52;39.65;;;13.13;;
31083;SDS011;36333;51.382;0.016;2022-12-10T03:49:21;36.28;;;12.95;;
31083;SDS011;36333;51.382;0.016;2022-12-10T03:51:49;35.45;;;13.13;;
31083;SDS011;36333;51.382;0.016;2022-12-10T03:54:18;38.75;;;12.27;;
31083;SDS011;36333;51.382;0.016;2022-12-10T03:59:14;38.55;;;11.65;;
31083;SDS011;36333;51.382;0.016;2022-12-10T04:01:42;31.05;;;11.65;;
31083;SDS011;36333;51.382;0.016;2022-12-10T04:04:10;31.20;;;12.05;;
31083;SDS011;36333;51.382;0.016;2022-12-10T04:06:38;34.72;;;12.85;;
31083;SDS011;36333;51.382;0.016;2022-12-10T04:09:09;40.75;;;12.43;;
31083;SDS011;36333;51.382;0.016;2022-12-10T04:11:38;43.28;;;12.40;;
31083;SDS011;36333;51.382;0.016;2022-12-10T04:14:07;42.20;;;13.15;;
31083;SDS011;36333;51.382;0.016;2022-12-10T04:16:55;47.72;;;13.18;;
31083;SDS011;36333;51.382;0.016;2022-12-10T04:19:22;40.88;;;13.20;;
31083;SDS011;36333;51.382;0.016;2022-12-10T04:21:53;41.80;;;13.20;;
31083;SDS011;36333;51.382;0.016;2022-12-10T04:24:40;37.83;;;12.48;;
31083;SDS011;36333;51.382;0.016;2022-12-10T04:27:30;35.63;;;12.90;;
31083;SDS011;36333;51.382;0.016;2022-12-10T04:30:00;39.80;;;12.93;;
31083;SDS011;36333;51.382;0.016;2022-12-10T04:32:32;35.50;;;12.75;;
31083;SDS011;36333;51.382;0.016;2022-12-10T04:35:00;41.42;;;13.23;;
31083;SDS011;36333;51.382;0.016;2022-12-10T04:37:28;48.28;;;14.38;;
31083;SDS011;36333;51.382;0.016;2022-12-10T04:42:26;46.05;;;13.18;;
31083;SDS011;36333;51.382;0.016;2022-12-10T04:44:56;46.90;;;13.20;;
31083;SDS011;36333;51.382;0.016;2022-12-10T04:47:26;45.67;;;14.20;;
31083;SDS011;36333;51.382;0.016;2022-12-10T04:49:53;42.15;;;13.85;;
31083;SDS011;36333;51.382;0.016;2022-12-10T04:52:21;43.78;;;13.60;;
31083;SDS011;36333;51.382;0.016;2022-12-10T04:54:50;37.08;;;13.10;;
31083;SDS011;36333;51.382;0.016;2022-12-10T04:57:17;44.90;;;14.15;;
31083;SDS011;36333;51.382;0.016;2022-12-10T04:59:45;41.35;;;13.93;;
31083;SDS011;36333;51.382;0.016;2022-12-10T05:02:13;44.22;;;13.75;;
31083;SDS011;36333;51.382;0.016;2022-12-10T05:04:41;35.58;;;13.82;;
31083;SDS011;36333;51.382;0.016;2022-12-10T05:07:09;45.65;;;14.27;;
31083;SDS011;36333;51.382;0.016;2022-12-10T05:12:04;35.13;;;11.63;;
31083;SDS011;36333;51.382;0.016;2022-12-10T05:14:41;37.07;;;12.73;;
31083;SDS011;36333;51.382;0.016;2022-12-10T05:17:09;35.63;;;12.55;;
31083;SDS011;36333;51.382;0.016;2022-12-10T05:19:37;36.83;;;11.93;;
31083;SDS011;36333;51.382;0.016;2022-12-10T05:22:05;39.13;;;12.32;;
31083;SDS011;36333;51.382;0.016;2022-12-10T05:24:51;33.17;;;11.82;;
31083;SDS011;36333;51.382;0.016;2022-12-10T05:27:19;28.90;;;11.80;;
31083;SDS011;36333;51.382;0.016;2022-12-10T05:29:47;33.63;;;11.68;;
31083;SDS011;36333;51.382;0.016;2022-12-10T05:32:17;33.03;;;11.68;;
31083;SDS011;36333;51.382;0.016;2022-12-10T05:34:45;31.88;;;11.55;;
31083;SDS011;36333;51.382;0.016;2022-12-10T05:37:13;34.20;;;11.73;;
31083;SDS011;36333;51.382;0.016;2022-12-10T05:39:41;43.75;;;12.60;;
31083;SDS011;36333;51.382;0.016;2022-12-10T05:42:08;35.90;;;12.40;;
31083;SDS011;36333;51.382;0.016;2022-12-10T05:44:41;29.67;;;11.95;;
31083;SDS011;36333;51.382;0.016;2022-12-10T05:47:09;38.63;;;12.68;;
31083;SDS011;36333;51.382;0.016;2022-12-10T05:49:42;34.13;;;12.15;;
31083;SDS011;36333;51.382;0.016;2022-12-10T05:52:16;35.03;;;12.53;;
31083;SDS011;36333;51.382;0.016;2022-12-10T05:54:44;37.42;;;12.57;;
31083;SDS011;36333;51.382;0.016;2022-12-10T05:57:14;38.25;;;12.48;;
31083;SDS011;36333;51.382;0.016;2022-12-10T05:59:41;37.38;;;13.15;;
31083;SDS011;36333;51.382;0.016;2022-12-10T06:02:17;37.60;;;14.88;;
31083;SDS011;36333;51.382;0.016;2022-12-10T06:07:17;51.42;;;16.60;;
31083;SDS011;36333;51.382;0.016;2022-12-10T06:09:45;45.13;;;16.80;;
31083;SDS011;36333;51.382;0.016;2022-12-10T06:12:13;43.15;;;17.25;;
31083;SDS011;36333;51.382;0.016;2022-12-10T06:14:41;43.80;;;17.08;;
31083;SDS011;36333;51.382;0.016;2022-12-10T06:17:14;44.28;;;16.17;;
31083;SDS011;36333;51.382;0.016;2022-12-10T06:19:41;47.78;;;17.58;;
31083;SDS011;36333;51.382;0.016;2022-12-10T06:24:57;37.85;;;12.32;;
31083;SDS011;36333;51.382;0.016;2022-12-10T06:27:29;35.75;;;12.02;;
31083;SDS011;36333;51.382;0.016;2022-12-10T06:29:58;41.03;;;13.43;;
31083;SDS011;36333;51.382;0.016;2022-12-10T06:32:26;32.75;;;13.05;;
31083;SDS011;36333;51.382;0.016;2022-12-10T06:34:56;38.97;;;12.52;;
31083;SDS011;36333;51.382;0.016;2022-12-10T06:37:24;44.97;;;13.90;;
31083;SDS011;36333;51.382;0.016;2022-12-10T06:42:20;33.30;;;11.77;;
31083;SDS011;36333;51.382;0.016;2022-12-10T06:44:50;35.25;;;12.15;;
31083;SDS011;36333;51.382;0.016;2022-12-10T06:47:21;30.70;;;12.85;;
31083;SDS011;36333;51.382;0.016;2022-12-10T06:52:17;33.97;;;11.27;;
31083;SDS011;36333;51.382;0.016;2022-12-10T06:54:45;36.45;;;11.80;;
31083;SDS011;36333;51.382;0.016;2022-12-10T06:57:12;31.88;;;11.45;;
31083;SDS011;36333;51.382;0.016;2022-12-10T07:02:13;39.03;;;12.10;;
31083;SDS011;36333;51.382;0.016;2022-12-10T07:04:45;37.83;;;12.70;;
31083;SDS011;36333;51.382;0.016;2022-12-10T07:07:19;41.00;;;13.95;;
31083;SDS011;36333;51.382;0.016;2022-12-10T07:09:52;43.08;;;13.82;;
31083;SDS011;36333;51.382;0.016;2022-12-10T07:12:25;47.63;;;15.90;;
31083;SDS011;36333;51.382;0.016;2022-12-10T07:15:02;32.97;;;13.75;;
31083;SDS011;36333;51.382;0.016;2022-12-10T07:17:31;36.42;;;13.60;;
31083;SDS011;36333;51.382;0.016;2022-12-10T07:19:59;38.95;;;14.20;;
31083;SDS011;36333;51.382;0.016;2022-12-10T07:22:30;38.97;;;14.07;;
31083;SDS011;36333;51.382;0.016;2022-12-10T07:24:58;40.90;;;14.68;;
31083;SDS011;36333;51.382;0.016;2022-12-10T07:27:31;37.80;;;13.38;;
31083;SDS011;36333;51.382;0.016;2022-12-10T07:30:01;33.50;;;13.73;;
31083;SDS011;36333;51.382;0.016;2022-12-10T07:32:29;36.95;;;13.43;;
31083;SDS011;36333;51.382;0.016;2022-12-10T07:34:59;32.42;;;13.70;;
31083;SDS011;36333;51.382;0.016;2022-12-10T07:37:27;39.25;;;13.45;;
31083;SDS011;36333;51.382;0.016;2022-12-10T07:40:04;38.13;;;13.88;;
31083;SDS011;36333;51.382;0.016;2022-12-10T07:42:53;34.75;;;12.65;;
31083;SDS011;36333;51.382;0.016;2022-12-10T07:45:46;35.80;;;12.30;;
31083;SDS011;36333;51.382;0.016;2022-12-10T07:48:16;31.88;;;12.68;;
31083;SDS011;36333;51.382;0.016;2022-12-10T07:50:44;33.45;;;13.32;;
31083;SDS011;36333;51.382;0.016;2022-12-10T07:53:34;33.45;;;12.52;;
31083;SDS011;36333;51.382;0.016;2022-12-10T07:56:02;37.35;;;12.32;;
31083;SDS011;36333;51.382;0.016;2022-12-10T07:58:34;27.38;;;11.32;;
31083;SDS011;36333;51.382;0.016;2022-12-10T08:01:09;31.35;;;11.68;;
31083;SDS011;36333;51.382;0.016;2022-12-10T08:03:56;35.67;;;12.50;;
31083;SDS011;36333;51.382;0.016;2022-12-10T08:06:27;31.85;;;12.18;;
31083;SDS011;36333;51.382;0.016;2022-12-10T08:09:16;29.40;;;12.23;;
31083;SDS011;36333;51.382;0.016;2022-12-10T08:11:51;33.47;;;12.30;;
31083;SDS011;36333;51.382;0.016;2022-12-10T08:15:51;28.95;;;11.75;;
31083;SDS011;36333;51.382;0.016;2022-12-10T08:18:26;37.13;;;12.82;;
31083;SDS011;36333;51.382;0.016;2022-12-10T08:22:13;34.20;;;12.10;;
31083;SDS011;36333;51.382;0.016;2022-12-10T08:25:19;41.22;;;12.68;;
31083;SDS011;36333;51.382;0.016;2022-12-10T08:31:08;33.38;;;13.25;;
31083;SDS011;36333;51.382;0.016;2022-12-10T08:36:59;26.52;;;12.20;;
31083;SDS011;36333;51.382;0.016;2022-12-10T08:39:48;41.58;;;13.80;;
31083;SDS011;36333;51.382;0.016;2022-12-10T08:51:01;36.80;;;13.98;;
31083;SDS011;36333;51.382;0.016;2022-12-10T08:58:14;39.53;;;14.77;;
31083;SDS011;36333;51.382;0.016;2022-12-10T09:01:06;44.97;;;16.50;;
31083;SDS011;36333;51.382;0.016;2022-12-10T09:03:40;38.95;;;16.33;;
31083;SDS011;36333;51.382;0.016;2022-12-10T09:06:28;40.60;;;16.00;;
31083;SDS011;36333;51.382;0.016;2022-12-10T09:19:28;48.63;;;19.00;;
31083;SDS011;36333;51.382;0.016;2022-12-10T09:22:00;50.05;;;17.70;;
31083;SDS011;36333;51.382;0.016;2022-12-10T09:25:08;53.70;;;17.33;;
31083;SDS011;36333;51.382;0.016;2022-12-10T09:28:03;50.08;;;17.77;;
31083;SDS011;36333;51.382;0.016;2022-12-10T09:31:23;50.13;;;16.73;;
31083;SDS011;36333;51.382;0.016;2022-12-10T09:34:30;51.67;;;17.83;;
31083;SDS011;36333;51.382;0.016;2022-12-10T09:37:04;55.40;;;18.65;;
31083;SDS011;36333;51.382;0.016;2022-12-10T09:40:14;62.28;;;19.27;;
31083;SDS011;36333;51.382;0.016;2022-12-10T09:50:42;74.72;;;22.55;;
31083;SDS011;36333;51.382;0.016;2022-12-10T09:53:46;79.88;;;21.48;;
31083;SDS011;36333;51.382;0.016;2022-12-10T09:56:44;76.70;;;22.33;;
31083;SDS011;36333;51.382;0.016;2022-12-10T10:02:03;73.75;;;21.50;;
31083;SDS011;36333;51.382;0.016;2022-12-10T10:04:47;80.50;;;22.10;;
31083;SDS011;36333;51.382;0.016;2022-12-10T10:07:26;72.25;;;19.88;;
31083;SDS011;36333;51.382;0.016;2022-12-10T10:10:07;65.55;;;22.55;;
31083;SDS011;36333;51.382;0.016;2022-12-10T10:13:01;70.53;;;21.65;;
31083;SDS011;36333;51.382;0.016;2022-12-10T10:15:40;61.28;;;21.10;;
31083;SDS011;36333;51.382;0.016;2022-12-10T10:21:24;67.35;;;20.30;;
31083;SDS011;36333;51.382;0.016;2022-12-10T10:24:05;71.50;;;23.88;;
31083;SDS011;36333;51.382;0.016;2022-12-10T10:26:44;88.03;;;36.92;;
31083;SDS011;36333;51.382;0.016;2022-12-10T10:29:32;82.53;;;29.23;;
31083;SDS011;36333;51.382;0.016;2022-12-10T10:32:18;67.07;;;25.40;;
31083;SDS011;36333;51.382;0.016;2022-12-10T10:34:52;47.42;;;18.98;;
31083;SDS011;36333;51.382;0.016;2022-12-10T10:37:23;47.42;;;17.45;;
31083;SDS011;36333;51.382;0.016;2022-12-10T10:39:56;52.25;;;17.63;;
31083;SDS011;36333;51.382;0.016;2022-12-10T10:42:35;50.58;;;16.33;;
31083;SDS011;36333;51.382;0.016;2022-12-10T10:48:12;46.78;;;16.88;;
31083;SDS011;36333;51.382;0.016;2022-12-10T10:50:54;46.05;;;15.65;;
31083;SDS011;36333;51.382;0.016;2022-12-10T10:53:42;35.55;;;14.38;;
31083;SDS011;36333;51.382;0.016;2022-12-10T11:00:40;31.13;;;12.63;;
31083;SDS011;36333;51.382;0.016;2022-12-10T11:04:12;30.42;;;11.80;;
31083;SDS011;36333;51.382;0.016;2022-12-10T11:06:59;34.90;;;11.70;;
31083;SDS011;36333;51.382;0.016;2022-12-10T11:14:43;33.40;;;11.52;;
31083;SDS011;36333;51.382;0.016;2022-12-10T11:20:34;27.08;;;11.40;;
31083;SDS011;36333;51.382;0.016;2022-12-10T11:23:41;29.00;;;9.63;;
31083;SDS011;36333;51.382;0.016;2022-12-10T11:26:21;23.75;;;9.80;;
31083;SDS011;36333;51.382;0.016;2022-12-10T11:30:22;22.75;;;8.70;;
31083;SDS011;36333;51.382;0.016;2022-12-10T11:33:51;24.30;;;9.20;;
31083;SDS011;36333;51.382;0.016;2022-12-10T11:37:02;20.33;;;8.18;;
31083;SDS011;36333;51.382;0.016;2022-12-10T11:43:44;16.45;;;7.88;;
31083;SDS011;36333;51.382;0.016;2022-12-10T11:52:26;19.38;;;8.30;;
31083;SDS011;36333;51.382;0.016;2022-12-10T11:55:24;14.90;;;6.90;;
31083;SDS011;36333;51.382;0.016;2022-12-10T12:01:11;15.32;;;6.82;;
31083;SDS011;36333;51.382;0.016;2022-12-10T12:03:51;16.70;;;7.32;;
31083;SDS011;36333;51.382;0.016;2022-12-10T12:09:01;16.23;;;7.00;;
31083;SDS011;36333;51.382;0.016;2022-12-10T12:14:34;11.77;;;4.70;;
31083;SDS011;36333;51.382;0.016;2022-12-10T12:17:12;10.52;;;4.35;;
31083;SDS011;36333;51.382;0.016;2022-12-10T12:19:53;13.70;;;4.18;;
31083;SDS011;36333;51.382;0.016;2022-12-10T12:22:29;14.52;;;5.03;;
31083;SDS011;36333;51.382;0.016;2022-12-10T12:25:08;13.52;;;4.40;;
31083;SDS011;36333;51.382;0.016;2022-12-10T12:27:51;12.10;;;4.00;;
31083;SDS011;36333;51.382;0.016;2022-12-10T12:30:27;8.87;;;3.83;;
31083;SDS011;36333;51.382;0.016;2022-12-10T12:35:56;11.18;;;4.43;;
31083;SDS011;36333;51.382;0.016;2022-12-10T12:41:21;12.93;;;4.45;;
31083;SDS011;36333;51.382;0.016;2022-12-10T12:44:07;9.85;;;3.50;;
31083;SDS011;36333;51.382;0.016;2022-12-10T12:46:44;8.68;;;3.33;;
31083;SDS011;36333;51.382;0.016;2022-12-10T12:49:21;7.78;;;2.85;;
31083;SDS011;36333;51.382;0.016;2022-12-10T12:54:40;9.25;;;2.70;;
31083;SDS011;36333;51.382;0.016;2022-12-10T12:57:18;7.47;;;3.20;;
31083;SDS011;36333;51.382;0.016;2022-12-10T13:00:04;5.28;;;2.45;;
31083;SDS011;36333;51.382;0.016;2022-12-10T13:05:21;7.15;;;2.67;;
31083;SDS011;36333;51.382;0.016;2022-12-10T13:10:52;5.05;;;2.10;;
31083;SDS011;36333;51.382;0.016;2022-12-10T13:13:33;8.50;;;1.80;;
31083;SDS011;36333;51.382;0.016;2022-12-10T13:35:15;7.72;;;2.95;;
31083;SDS011;36333;51.382;0.016;2022-12-10T13:46:20;7.07;;;2.50;;
31083;SDS011;36333;51.382;0.016;2022-12-10T13:49:04;5.32;;;2.13;;
31083;SDS011;36333;51.382;0.016;2022-12-10T13:51:36;10.57;;;4.40;;
31083;SDS011;36333;51.382;0.016;2022-12-10T13:57:08;9.38;;;2.35;;
31083;SDS011;36333;51.382;0.016;2022-12-10T13:59:57;7.68;;;2.40;;
31083;SDS011;36333;51.382;0.016;2022-12-10T14:02:43;5.72;;;2.40;;
31083;SDS011;36333;51.382;0.016;2022-12-10T14:08:33;4.70;;;1.95;;
31083;SDS011;36333;51.382;0.016;2022-12-10T14:11:16;4.30;;;1.95;;
31083;SDS011;36333;51.382;0.016;2022-12-10T14:13:49;7.28;;;2.65;;
31083;SDS011;36333;51.382;0.016;2022-12-10T14:16:23;5.57;;;2.33;;
31083;SDS011;36333;51.382;0.016;2022-12-10T14:18:59;9.95;;;2.35;;
31083;SDS011;36333;51.382;0.016;2022-12-10T14:21:43;7.15;;;2.25;;
31083;SDS011;36333;51.382;0.016;2022-12-10T14:24:28;6.28;;;2.15;;
31083;SDS011;36333;51.382;0.016;2022-12-10T14:27:14;6.55;;;2.22;;
31083;SDS011;36333;51.382;0.016;2022-12-10T14:29:48;7.68;;;2.60;;
31083;SDS011;36333;51.382;0.016;2022-12-10T14:32:47;6.43;;;2.80;;
31083;SDS011;36333;51.382;0.016;2022-12-10T14:35:21;15.25;;;5.65;;
31083;SDS011;36333;51.382;0.016;2022-12-10T14:37:56;10.77;;;4.72;;
31083;SDS011;36333;51.382;0.016;2022-12-10T14:41:22;10.40;;;3.60;;
31083;SDS011;36333;51.382;0.016;2022-12-10T14:44:16;9.57;;;3.80;;
31083;SDS011;36333;51.382;0.016;2022-12-10T14:47:01;12.23;;;6.80;;
31083;SDS011;36333;51.382;0.016;2022-12-10T14:49:53;10.82;;;4.13;;
31083;SDS011;36333;51.382;0.016;2022-12-10T14:52:30;12.95;;;5.07;;
31083;SDS011;36333;51.382;0.016;2022-12-10T14:55:28;15.65;;;5.05;;
31083;SDS011;36333;51.382;0.016;2022-12-10T14:58:06;13.38;;;5.70;;
31083;SDS011;36333;51.382;0.016;2022-12-10T15:00:55;40.53;;;19.40;;
31083;SDS011;36333;51.382;0.016;2022-12-10T15:03:49;30.63;;;13.50;;
31083;SDS011;36333;51.382;0.016;2022-12-10T15:06:22;21.73;;;10.60;;
31083;SDS011;36333;51.382;0.016;2022-12-10T15:09:09;24.98;;;13.35;;
31083;SDS011;36333;51.382;0.016;2022-12-10T15:21:31;45.63;;;17.42;;
31083;SDS011;36333;51.382;0.016;2022-12-10T15:24:15;34.60;;;15.43;;
31083;SDS011;36333;51.382;0.016;2022-12-10T15:26:44;35.53;;;15.00;;
31083;SDS011;36333;51.382;0.016;2022-12-10T15:32:33;33.45;;;15.82;;
31083;SDS011;36333;51.382;0.016;2022-12-10T15:35:20;26.67;;;12.43;;
31083;SDS011;36333;51.382;0.016;2022-12-10T15:37:56;33.75;;;12.75;;
31083;SDS011;36333;51.382;0.016;2022-12-10T15:40:29;27.02;;;12.75;;
31083;SDS011;36333;51.382;0.016;2022-12-10T15:43:11;26.38;;;12.55;;
31083;SDS011;36333;51.382;0.016;2022-12-10T15:45:52;34.60;;;13.75;;
31083;SDS011;36333;51.382;0.016;2022-12-10T15:48:28;33.92;;;14.50;;
31083;SDS011;36333;51.382;0.016;2022-12-10T15:51:04;32.10;;;14.35;;
31083;SDS011;36333;51.382;0.016;2022-12-10T15:53:34;33.17;;;14.85;;
31083;SDS011;36333;51.382;0.016;2022-12-10T15:56:04;38.80;;;16.42;;
31083;SDS011;36333;51.382;0.016;2022-12-10T15:58:36;41.63;;;16.85;;
31083;SDS011;36333;51.382;0.016;2022-12-10T16:01:03;38.50;;;16.75;;
31083;SDS011;36333;51.382;0.016;2022-12-10T16:03:36;41.10;;;16.95;;
31083;SDS011;36333;51.382;0.016;2022-12-10T16:06:07;41.83;;;16.30;;
31083;SDS011;36333;51.382;0.016;2022-12-10T16:08:37;39.45;;;17.17;;
31083;SDS011;36333;51.382;0.016;2022-12-10T16:11:10;37.60;;;16.70;;
31083;SDS011;36333;51.382;0.016;2022-12-10T16:13:45;34.25;;;15.85;;
31083;SDS011;36333;51.382;0.016;2022-12-10T16:16:19;40.80;;;16.92;;
31083;SDS011;36333;51.382;0.016;2022-12-10T16:18:47;41.47;;;16.42;;
31083;SDS011;36333;51.382;0.016;2022-12-10T16:21:15;34.75;;;16.80;;
31083;SDS011;36333;51.382;0.016;2022-12-10T16:23:45;71.28;;;29.45;;
31083;SDS011;36333;51.382;0.016;2022-12-10T16:26:19;51.20;;;22.83;;
31083;SDS011;36333;51.382;0.016;2022-12-10T16:28:50;54.00;;;23.17;;
31083;SDS011;36333;51.382;0.016;2022-12-10T16:31:19;57.60;;;22.13;;
31083;SDS011;36333;51.382;0.016;2022-12-10T16:33:55;57.53;;;25.27;;
31083;SDS011;36333;51.382;0.016;2022-12-10T16:36:23;44.35;;;21.42;;
31083;SDS011;36333;51.382;0.016;2022-12-10T16:38:53;51.60;;;22.23;;
31083;SDS011;36333;51.382;0.016;2022-12-10T16:41:22;44.72;;;20.83;;
31083;SDS011;36333;51.382;0.016;2022-12-10T16:44:16;47.92;;;20.83;;
31083;SDS011;36333;51.382;0.016;2022-12-10T16:47:11;41.55;;;19.85;;
31083;SDS011;36333;51.382;0.016;2022-12-10T16:49:39;49.22;;;21.48;;
31083;SDS011;36333;51.382;0.016;2022-12-10T16:52:13;50.40;;;19.98;;
31083;SDS011;36333;51.382;0.016;2022-12-10T16:54:41;52.38;;;19.92;;
31083;SDS011;36333;51.382;0.016;2022-12-10T16:57:13;50.83;;;20.00;;
31083;SDS011;36333;51.382;0.016;2022-12-10T16:59:45;51.55;;;20.25;;
31083;SDS011;36333;51.382;0.016;2022-12-10T17:02:17;49.63;;;19.85;;
31083;SDS011;36333;51.382;0.016;2022-12-10T17:04:49;52.83;;;20.77;;
31083;SDS011;36333;51.382;0.016;2022-12-10T17:07:19;55.90;;;19.77;;
31083;SDS011;36333;51.382;0.016;2022-12-10T17:09:49;55.17;;;20.95;;
31083;SDS011;36333;51.382;0.016;2022-12-10T17:12:16;53.42;;;20.88;;
31083;SDS011;36333;51.382;0.016;2022-12-10T17:17:13;60.25;;;20.40;;
31083;SDS011;36333;51.382;0.016;2022-12-10T17:19:41;60.53;;;21.58;;
31083;SDS011;36333;51.382;0.016;2022-12-10T17:22:11;75.45;;;28.40;;
31083;SDS011;36333;51.382;0.016;2022-12-10T17:27:10;72.03;;;26.75;;
31083;SDS011;36333;51.382;0.016;2022-12-10T17:29:41;84.65;;;31.15;;
31083;SDS011;36333;51.382;0.016;2022-12-10T17:32:16;72.88;;;28.25;;
31083;SDS011;36333;51.382;0.016;2022-12-10T17:34:44;160.32;;;40.00;;
31083;SDS011;36333;51.382;0.016;2022-12-10T17:37:13;122.90;;;37.13;;
31083;SDS011;36333;51.382;0.016;2022-12-10T17:39:42;104.50;;;30.75;;
31083;SDS011;36333;51.382;0.016;2022-12-10T17:42:10;110.07;;;34.20;;
31083;SDS011;36333;51.382;0.016;2022-12-10T17:44:40;74.05;;;25.77;;
31083;SDS011;36333;51.382;0.016;2022-12-10T17:47:16;51.88;;;20.75;;
31083;SDS011;36333;51.382;0.016;2022-12-10T17:49:48;142.55;;;29.45;;
31083;SDS011;36333;51.382;0.016;2022-12-10T17:54:43;68.65;;;23.38;;
31083;SDS011;36333;51.382;0.016;2022-12-10T17:57:13;58.10;;;21.40;;
31083;SDS011;36333;51.382;0.016;2022-12-10T17:59:44;86.55;;;27.45;;
31083;SDS011;36333;51.382;0.016;2022-12-10T18:02:12;67.35;;;25.92;;
31083;SDS011;36333;51.382;0.016;2022-12-10T18:04:40;129.85;;;31.95;;
31083;SDS011;36333;51.382;0.016;2022-12-10T18:07:14;130.88;;;32.97;;
31083;SDS011;36333;51.382;0.016;2022-12-10T18:09:49;94.25;;;31.15;;
31083;SDS011;36333;51.382;0.016;2022-12-10T18:12:17;93.13;;;33.03;;
31083;SDS011;36333;51.382;0.016;2022-12-10T18:14:45;78.70;;;29.00;;
31083;SDS011;36333;51.382;0.016;2022-12-10T18:17:13;65.65;;;25.90;;
31083;SDS011;36333;51.382;0.016;2022-12-10T18:19:42;60.45;;;24.55;;
31083;SDS011;36333;51.382;0.016;2022-12-10T18:22:15;92.43;;;34.03;;
31083;SDS011;36333;51.382;0.016;2022-12-10T18:24:45;74.28;;;27.13;;
31083;SDS011;36333;51.382;0.016;2022-12-10T18:27:13;72.72;;;28.45;;
31083;SDS011;36333;51.382;0.016;2022-12-10T18:29:43;81.18;;;29.15;;
31083;SDS011;36333;51.382;0.016;2022-12-10T18:32:11;74.80;;;27.70;;
31083;SDS011;36333;51.382;0.016;2022-12-10T18:37:08;61.42;;;25.05;;
31083;SDS011;36333;51.382;0.016;2022-12-10T18:39:37;82.90;;;29.77;;
31083;SDS011;36333;51.382;0.016;2022-12-10T18:42:04;109.00;;;36.17;;
31083;SDS011;36333;51.382;0.016;2022-12-10T18:44:32;89.25;;;34.70;;
31083;SDS011;36333;51.382;0.016;2022-12-10T18:47:00;82.47;;;33.28;;
31083;SDS011;36333;51.382;0.016;2022-12-10T18:49:27;71.95;;;28.70;;
31083;SDS011;36333;51.382;0.016;2022-12-10T18:51:57;77.55;;;27.77;;
31083;SDS011;36333;51.382;0.016;2022-12-10T18:54:25;72.68;;;30.20;;